Time;durP1;ratioP1;P1;durP2;ratioP2;P2;SDS_P1;SDS_P2;PMS_P1;PMS_P2;Temp;Humidity;BMP_temperature;BMP_pressure;BME280_temperature;BME280_humidity;BME280_pressure;Samples;Min_cycle;Max_cycle;Signal;HPM_P1;HPM_P2
2023/04/25 00:00:52;;;;;;;;;24.50;22.50;21.60;41.90;;;;;;109949;1256;45858;-59
2023/04/25 00:03:24;;;;;;;;;27.50;23.00;21.60;42.00;;;;;;109941;1256;55527;-58
2023/04/25 00:05:52;;;;;;;;;28.00;25.00;21.60;42.00;;;;;;110310;1252;53271;-58
2023/04/25 00:08:18;;;;;;;;;28.00;24.00;21.60;42.00;;;;;;109928;1252;50459;-59
2023/04/25 00:10:45;;;;;;;;;24.00;21.50;21.60;41.80;;;;;;109932;1257;49311;-58
2023/04/25 00:13:13;;;;;;;;;26.00;25.00;21.60;42.10;;;;;;109934;1256;45770;-56
2023/04/25 00:15:41;;;;;;;;;25.50;23.00;21.60;42.10;;;;;;109958;1257;55234;-57
2023/04/25 00:18:08;;;;;;;;;26.50;24.00;21.60;41.90;;;;;;109976;1257;54815;-58
2023/04/25 00:20:36;;;;;;;;;25.00;24.00;21.60;41.90;;;;;;109933;1256;50730;-57
2023/04/25 00:23:03;;;;;;;;;22.50;21.00;21.60;41.90;;;;;;109882;1257;49823;-58
2023/04/25 00:25:29;;;;;;;;;27.00;25.00;21.60;41.90;;;;;;109961;1255;46047;-58
2023/04/25 00:27:56;;;;;;;;;26.00;23.50;21.60;41.90;;;;;;110051;1252;55923;-57
2023/04/25 00:30:23;;;;;;;;;22.00;20.50;21.60;42.10;;;;;;110009;1257;53564;-59
2023/04/25 00:32:50;;;;;;;;;23.50;22.50;21.60;42.00;;;;;;109910;1257;49858;-59
2023/04/25 00:35:17;;;;;;;;;26.00;24.00;21.50;41.90;;;;;;109950;1252;49615;-58
2023/04/25 00:37:45;;;;;;;;;21.50;20.50;21.50;41.90;;;;;;109964;1257;45496;-60
2023/04/25 00:40:12;;;;;;;;;24.00;21.00;21.50;41.90;;;;;;110024;1257;55706;-57
2023/04/25 00:42:39;;;;;;;;;27.00;25.00;21.50;41.90;;;;;;109978;1256;53528;-57
2023/04/25 00:45:07;;;;;;;;;25.33;24.00;21.50;42.10;;;;;;109969;1254;49678;-59
2023/04/25 00:47:35;;;;;;;;;29.00;28.00;21.50;42.00;;;;;;109926;1256;49452;-59
2023/04/25 00:50:03;;;;;;;;;30.00;27.00;21.50;41.90;;;;;;109939;1252;46179;-59
2023/04/25 00:52:30;;;;;;;;;24.33;22.00;21.50;41.90;;;;;;109957;1252;55411;-57
2023/04/25 00:54:57;;;;;;;;;26.00;24.00;21.50;41.90;;;;;;109980;1252;53381;-57
2023/04/25 00:57:24;;;;;;;;;30.00;27.33;21.50;42.00;;;;;;109941;1252;49843;-59
2023/04/25 00:59:52;;;;;;;;;;;21.50;42.00;;;;;;110018;1255;49643;-59
2023/04/25 01:02:20;;;;;;;;;25.50;24.25;21.50;42.20;;;;;;110018;1252;46101;-59
2023/04/25 01:04:48;;;;;;;;;29.00;24.00;21.50;42.20;;;;;;110088;1254;56388;-60
2023/04/25 01:07:16;;;;;;;;;28.00;25.00;21.50;42.00;;;;;;109983;1252;54279;-58
2023/04/25 01:09:43;;;;;;;;;25.50;24.50;21.50;41.90;;;;;;110020;1255;49137;-58
2023/04/25 01:12:10;;;;;;;;;25.00;24.00;21.50;42.10;;;;;;109963;1257;50187;-59
2023/04/25 01:14:37;;;;;;;;;31.00;29.67;21.50;42.00;;;;;;110058;1252;46344;-59
2023/04/25 01:17:04;;;;;;;;;27.00;23.00;21.50;42.00;;;;;;110016;1257;55564;-59
2023/04/25 01:19:30;;;;;;;;;25.00;24.00;21.50;42.40;;;;;;109966;1256;53993;-57
2023/04/25 01:21:58;;;;;;;;;24.00;23.00;21.50;42.00;;;;;;109946;1252;49124;-58
2023/04/25 01:24:25;;;;;;;;;29.50;28.50;21.50;42.10;;;;;;109869;1257;49313;-58
2023/04/25 01:26:56;;;;;;;;;31.50;27.00;21.50;42.00;;;;;;110036;1252;45635;-59
2023/04/25 01:29:23;;;;;;;;;31.00;26.00;21.50;42.30;;;;;;110010;1252;56741;-58
2023/04/25 01:31:52;;;;;;;;;24.00;22.00;21.50;42.10;;;;;;109874;1257;53903;-59
2023/04/25 01:34:19;;;;;;;;;29.00;25.50;21.50;42.30;;;;;;109978;1256;49215;-58
2023/04/25 01:36:50;;;;;;;;;25.00;24.00;21.40;42.10;;;;;;109989;1252;49850;-58
2023/04/25 01:39:18;;;;;;;;;24.50;23.00;21.50;42.60;;;;;;109921;1257;45165;-59
2023/04/25 01:41:49;;;;;;;;;25.50;22.50;21.50;42.30;;;;;;109990;1252;55850;-58
2023/04/25 01:44:16;;;;;;;;;;;21.40;42.20;;;;;;109996;1257;53288;-58
2023/04/25 01:46:43;;;;;;;;;28.00;26.00;21.40;42.20;;;;;;110069;1252;49885;-58
2023/04/25 01:49:10;;;;;;;;;26.00;23.00;21.40;42.00;;;;;;109950;1255;49722;-59
2023/04/25 01:51:37;;;;;;;;;33.50;27.50;21.40;42.20;;;;;;110042;1252;46520;-60
2023/04/25 01:54:05;;;;;;;;;29.00;25.33;21.40;42.00;;;;;;109913;1255;56650;-57
2023/04/25 01:56:33;;;;;;;;;28.75;27.75;21.40;42.10;;;;;;109965;1257;54300;-58
2023/04/25 01:59:00;;;;;;;;;32.00;27.00;21.40;42.10;;;;;;109937;1256;49746;-58
2023/04/25 02:01:27;;;;;;;;;26.00;23.00;21.40;42.10;;;;;;109963;1256;49560;-58
2023/04/25 02:03:54;;;;;;;;;26.50;24.50;21.40;42.10;;;;;;109946;1257;46051;-57
2023/04/25 02:06:21;;;;;;;;;27.00;26.00;21.40;42.10;;;;;;110062;1254;56283;-58
2023/04/25 02:08:48;;;;;;;;;27.67;25.33;21.40;42.10;;;;;;109888;1254;54353;-58
2023/04/25 02:11:15;;;;;;;;;24.00;22.50;21.40;42.30;;;;;;109980;1256;49821;-58
2023/04/25 02:13:42;;;;;;;;;31.00;28.50;21.40;42.10;;;;;;110026;1254;50348;-57
2023/04/25 02:16:09;;;;;;;;;29.67;25.67;21.40;42.10;;;;;;109942;1257;46164;-57
2023/04/25 02:18:36;;;;;;;;;23.00;21.00;21.40;42.10;;;;;;110006;1256;55210;-58
2023/04/25 02:21:04;;;;;;;;;28.67;27.67;21.40;42.30;;;;;;109997;1252;53742;-58
2023/04/25 02:23:30;;;;;;;;;27.00;22.50;21.40;42.10;;;;;;109906;1252;50746;-57
2023/04/25 02:25:57;;;;;;;;;27.67;24.67;21.30;42.00;;;;;;109977;1256;50898;-58
2023/04/25 02:28:25;;;;;;;;;32.00;28.00;21.40;42.20;;;;;;109903;1255;46788;-57
2023/04/25 02:30:53;;;;;;;;;23.50;22.50;21.40;42.10;;;;;;110102;1253;55354;-58
2023/04/25 02:33:20;;;;;;;;;25.00;23.50;21.40;41.90;;;;;;109901;1255;53501;-58
2023/04/25 02:35:47;;;;;;;;;25.50;22.50;21.40;42.20;;;;;;109992;1256;49420;-58
2023/04/25 02:38:15;;;;;;;;;27.00;25.00;21.30;42.10;;;;;;110047;1255;49687;-57
2023/04/25 02:40:41;;;;;;;;;27.00;25.00;21.40;42.10;;;;;;110063;1256;46280;-59
2023/04/25 02:43:08;;;;;;;;;25.00;22.50;21.30;42.10;;;;;;109905;1252;55619;-58
2023/04/25 02:45:35;;;;;;;;;26.00;24.00;21.30;42.10;;;;;;109914;1257;53798;-58
2023/04/25 02:48:03;;;;;;;;;28.00;26.00;21.30;42.10;;;;;;109889;1257;49767;-59
2023/04/25 02:50:30;;;;;;;;;24.00;23.00;21.40;42.20;;;;;;109920;1254;49487;-58
2023/04/25 02:52:57;;;;;;;;;28.00;26.00;21.30;42.10;;;;;;109940;1252;46182;-57
2023/04/25 02:55:24;;;;;;;;;30.50;27.00;21.30;42.10;;;;;;109965;1254;55645;-57
2023/04/25 02:57:51;;;;;;;;;25.00;22.00;21.30;42.10;;;;;;109895;1252;54652;-58
2023/04/25 03:00:18;;;;;;;;;30.00;25.00;21.30;42.10;;;;;;109933;1256;49386;-59
2023/04/25 03:02:45;;;;;;;;;27.00;24.50;21.30;42.30;;;;;;109891;1252;49073;-58
2023/04/25 03:05:12;;;;;;;;;25.00;23.00;21.30;42.10;;;;;;109998;1252;47126;-58
2023/04/25 03:07:39;;;;;;;;;26.00;24.00;21.30;42.20;;;;;;109914;1255;57445;-57
2023/04/25 03:10:07;;;;;;;;;29.00;24.67;21.30;42.10;;;;;;109940;1252;54501;-58
2023/04/25 03:12:34;;;;;;;;;24.00;23.00;21.30;42.20;;;;;;110050;1252;49152;-57
2023/04/25 03:15:01;;;;;;;;;26.50;23.00;21.30;42.40;;;;;;110098;1256;49584;-58
2023/04/25 03:17:28;;;;;;;;;24.50;23.50;21.30;42.20;;;;;;110002;1254;45273;-58
2023/04/25 03:19:55;;;;;;;;;24.00;22.00;21.30;42.70;;;;;;109935;1257;55972;-58
2023/04/25 03:22:23;;;;;;;;;27.00;25.00;21.30;42.20;;;;;;109988;1252;53633;-58
2023/04/25 03:24:50;;;;;;;;;26.00;25.00;21.30;42.20;;;;;;110091;1257;49532;-58
2023/04/25 03:27:17;;;;;;;;;24.00;21.00;21.20;42.60;;;;;;109972;1252;50216;-58
2023/04/25 03:29:44;;;;;;;;;27.00;26.00;21.30;42.20;;;;;;110011;1256;45221;-58
2023/04/25 03:32:11;;;;;;;;;30.00;28.33;21.30;42.20;;;;;;109974;1252;55237;-60
2023/04/25 03:34:38;;;;;;;;;29.00;25.00;21.30;42.20;;;;;;109937;1252;53991;-62
2023/04/25 03:37:05;;;;;;;;;23.50;22.50;21.30;42.20;;;;;;109965;1252;50473;-60
2023/04/25 03:39:32;;;;;;;;;28.50;24.00;21.30;42.20;;;;;;109979;1252;49463;-61
2023/04/25 03:41:59;;;;;;;;;26.00;23.00;21.20;42.20;;;;;;110002;1257;45809;-58
2023/04/25 03:44:26;;;;;;;;;27.00;23.00;21.30;42.20;;;;;;110002;1257;55688;-58
2023/04/25 03:46:53;;;;;;;;;29.00;24.50;21.30;42.30;;;;;;109952;1257;54260;-58
2023/04/25 03:49:20;;;;;;;;;26.00;23.00;21.20;42.20;;;;;;110033;1257;50179;-60
2023/04/25 03:51:47;;;;;;;;;28.00;24.33;21.20;42.20;;;;;;110092;1255;50395;-62
2023/04/25 03:54:14;;;;;;;;;25.33;24.00;21.20;42.20;;;;;;109978;1256;46066;-58
2023/04/25 03:56:41;;;;;;;;;29.00;27.00;21.20;42.40;;;;;;109909;1252;55561;-58
2023/04/25 03:59:08;;;;;;;;;27.00;24.50;21.20;42.20;;;;;;109916;1252;53336;-58
2023/04/25 04:01:35;;;;;;;;;27.00;25.00;21.20;42.40;;;;;;109902;1252;50241;-57
2023/04/25 04:04:02;;;;;;;;;28.00;27.00;21.20;42.20;;;;;;109913;1255;49131;-58
2023/04/25 04:06:29;;;;;;;;;27.00;26.00;21.20;42.40;;;;;;109913;1257;45726;-59
2023/04/25 04:08:56;;;;;;;;;27.50;26.00;21.20;42.30;;;;;;109948;1252;55785;-57
2023/04/25 04:11:24;;;;;;;;;25.00;23.00;21.20;42.20;;;;;;109944;1252;54004;-58
2023/04/25 04:13:50;;;;;;;;;25.00;22.75;21.20;42.40;;;;;;110052;1255;50053;-58
2023/04/25 04:16:18;;;;;;;;;26.00;24.50;21.20;42.20;;;;;;110054;1252;50442;-58
2023/04/25 04:18:46;;;;;;;;;27.50;26.00;21.20;42.30;;;;;;110055;1252;46129;-58
2023/04/25 04:21:13;;;;;;;;;28.00;25.00;21.20;42.20;;;;;;110058;1257;55192;-58
2023/04/25 04:23:40;;;;;;;;;27.00;23.00;21.20;42.20;;;;;;109969;1252;54087;-57
2023/04/25 04:26:08;;;;;;;;;30.00;28.50;21.20;42.30;;;;;;109945;1252;49373;-59
2023/04/25 04:28:35;;;;;;;;;28.00;27.00;21.20;42.50;;;;;;109955;1252;49568;-57
2023/04/25 04:31:03;;;;;;;;;28.50;27.00;21.20;42.50;;;;;;110007;1256;45483;-57
2023/04/25 04:33:30;;;;;;;;;24.00;22.00;21.20;42.30;;;;;;110069;1252;55371;-57
2023/04/25 04:35:57;;;;;;;;;34.00;28.00;21.20;42.30;;;;;;110084;1252;53860;-57
2023/04/25 04:38:25;;;;;;;;;27.00;23.00;21.10;42.20;;;;;;110028;1256;49547;-58
2023/04/25 04:40:52;;;;;;;;;32.00;30.00;21.20;42.50;;;;;;110067;1253;49827;-58
2023/04/25 04:43:19;;;;;;;;;23.50;22.00;21.20;42.30;;;;;;110055;1256;46108;-58
2023/04/25 04:45:47;;;;;;;;;26.00;24.00;21.20;42.30;;;;;;110004;1257;55453;-58
2023/04/25 04:48:14;;;;;;;;;25.00;23.00;21.20;42.30;;;;;;110039;1253;54183;-58
2023/04/25 04:50:44;;;;;;;;;28.33;27.00;21.20;42.30;;;;;;109169;1257;1174201;-58
2023/04/25 04:53:11;;;;;;;;;27.00;26.00;21.20;42.90;;;;;;109988;1257;49476;-58
2023/04/25 04:55:39;;;;;;;;;26.00;24.00;21.10;41.70;;;;;;110025;1252;45790;-58
2023/04/25 04:58:06;;;;;;;;;26.00;24.00;21.20;42.20;;;;;;110018;1252;55564;-58
2023/04/25 05:00:33;;;;;;;;;28.00;27.00;21.20;42.20;;;;;;109994;1255;54437;-57
2023/04/25 05:03:00;;;;;;;;;27.00;25.50;21.20;42.20;;;;;;109931;1254;50153;-57
2023/04/25 05:05:27;;;;;;;;;27.00;24.00;21.10;42.20;;;;;;109991;1256;49533;-57
2023/04/25 05:07:54;;;;;;;;;29.00;27.00;21.10;42.20;;;;;;110038;1256;45427;-57
2023/04/25 05:10:21;;;;;;;;;27.00;24.00;21.20;42.30;;;;;;110093;1252;55978;-57
2023/04/25 05:12:48;;;;;;;;;24.00;22.50;21.10;42.20;;;;;;109868;1252;54317;-57
2023/04/25 05:15:15;;;;;;;;;24.50;21.00;21.10;42.20;;;;;;109904;1254;50392;-59
2023/04/25 05:17:43;;;;;;;;;29.50;26.50;21.10;42.20;;;;;;109938;1252;48917;-58
2023/04/25 05:20:10;;;;;;;;;25.00;24.00;21.10;42.20;;;;;;109923;1252;46053;-58
2023/04/25 05:22:37;;;;;;;;;26.00;25.00;21.10;42.00;;;;;;109887;1257;55044;-58
2023/04/25 05:25:05;;;;;;;;;25.00;24.00;21.10;42.50;;;;;;109946;1252;54565;-57
2023/04/25 05:27:32;;;;;;;;;28.00;27.00;21.10;42.30;;;;;;109897;1256;49714;-57
2023/04/25 05:29:59;;;;;;;;;29.00;28.00;21.10;42.30;;;;;;109911;1254;49173;-57
2023/04/25 05:32:26;;;;;;;;;30.00;29.00;21.10;42.30;;;;;;109916;1255;45689;-58
2023/04/25 05:34:53;;;;;;;;;25.00;22.50;21.10;42.40;;;;;;109917;1256;55482;-58
2023/04/25 05:37:20;;;;;;;;;28.00;25.00;21.10;42.30;;;;;;109904;1257;53480;-59
2023/04/25 05:39:47;;;;;;;;;26.00;25.00;21.10;42.50;;;;;;109951;1257;49147;-58
2023/04/25 05:42:14;;;;;;;;;23.50;22.50;21.20;42.60;;;;;;109976;1252;49365;-59
2023/04/25 05:44:41;;;;;;;;;23.33;22.00;21.10;42.30;;;;;;109932;1257;45371;-59
2023/04/25 05:47:08;;;;;;;;;27.50;25.50;21.10;42.40;;;;;;109930;1252;56000;-59
2023/04/25 05:49:35;;;;;;;;;30.50;28.00;21.10;42.30;;;;;;109944;1252;54045;-57
2023/04/25 05:52:02;;;;;;;;;28.00;25.00;21.10;42.30;;;;;;109883;1252;50009;-58
2023/04/25 05:54:29;;;;;;;;;28.00;25.00;21.10;42.30;;;;;;109900;1252;50571;-57
2023/04/25 05:56:57;;;;;;;;;27.50;26.00;21.10;42.30;;;;;;109925;1252;46078;-58
2023/04/25 05:59:24;;;;;;;;;25.50;24.00;21.10;42.50;;;;;;109901;1257;55140;-58
2023/04/25 06:01:51;;;;;;;;;25.00;24.00;21.10;41.80;;;;;;109917;1256;54299;-58
2023/04/25 06:04:18;;;;;;;;;26.00;24.50;21.10;42.30;;;;;;109993;1251;48984;-58
2023/04/25 06:06:45;;;;;;;;;25.00;23.75;21.10;42.60;;;;;;109936;1257;49602;-58
2023/04/25 06:09:12;;;;;;;;;30.00;28.00;21.10;42.60;;;;;;109919;1252;46233;-58
2023/04/25 06:11:39;;;;;;;;;26.50;24.50;21.10;42.30;;;;;;109994;1252;55276;-58
2023/04/25 06:14:07;;;;;;;;;24.50;23.50;21.10;42.60;;;;;;109933;1252;54261;-58
2023/04/25 06:16:34;;;;;;;;;28.67;25.00;21.10;42.30;;;;;;109941;1252;50436;-58
2023/04/25 06:19:01;;;;;;;;;26.50;23.00;21.10;42.30;;;;;;109916;1256;48923;-58
2023/04/25 06:21:28;;;;;;;;;25.00;24.00;21.10;42.30;;;;;;109964;1252;45680;-58
2023/04/25 06:23:55;;;;;;;;;26.00;24.00;21.10;42.30;;;;;;109972;1252;56745;-58
2023/04/25 06:26:22;;;;;;;;;27.00;24.00;21.10;42.40;;;;;;109903;1256;53773;-58
2023/04/25 06:28:48;;;;;;;;;26.00;25.00;21.10;42.60;;;;;;110021;1252;49759;-57
2023/04/25 06:31:15;;;;;;;;;27.33;26.33;21.10;42.40;;;;;;109889;1252;49631;-57
2023/04/25 06:33:42;;;;;;;;;30.00;29.00;21.10;42.30;;;;;;109905;1256;45590;-57
2023/04/25 06:36:10;;;;;;;;;30.00;27.00;21.10;42.30;;;;;;109877;1257;56728;-58
2023/04/25 06:38:37;;;;;;;;;25.00;24.00;21.10;42.30;;;;;;110033;1254;53969;-58
2023/04/25 06:41:04;;;;;;;;;28.00;27.00;21.10;42.30;;;;;;109990;1256;49526;-59
2023/04/25 06:43:33;;;;;;;;;27.00;25.00;21.10;42.30;;;;;;110001;1252;49524;-57
2023/04/25 06:46:00;;;;;;;;;31.50;27.50;21.10;42.30;;;;;;109992;1252;45859;-59
2023/04/25 06:48:27;;;;;;;;;24.33;23.00;21.10;42.30;;;;;;110039;1258;55988;-58
2023/04/25 06:50:54;;;;;;;;;26.33;25.33;21.10;42.30;;;;;;109937;1252;53872;-58
2023/04/25 06:53:22;;;;;;;;;24.00;23.00;21.10;42.50;;;;;;109923;1254;49862;-59
2023/04/25 06:55:49;;;;;;;;;30.50;25.00;21.10;42.30;;;;;;110029;1252;49266;-59
2023/04/25 06:58:16;;;;;;;;;30.50;27.50;21.10;42.50;;;;;;110000;1256;45667;-57
2023/04/25 07:00:44;;;;;;;;;31.00;28.00;21.20;42.40;;;;;;110026;1257;56552;-58
2023/04/25 07:03:11;;;;;;;;;27.00;25.00;21.10;42.30;;;;;;109974;1257;53439;-58
2023/04/25 07:05:38;;;;;;;;;30.00;24.00;21.10;42.30;;;;;;110021;1257;49126;-59
2023/04/25 07:08:05;;;;;;;;;22.00;21.00;21.20;42.60;;;;;;109968;1258;49610;-58
2023/04/25 07:10:32;;;;;;;;;26.00;23.67;21.10;42.50;;;;;;109954;1252;46241;-58
2023/04/25 07:12:59;;;;;;;;;28.00;27.00;21.20;42.40;;;;;;109897;1254;56040;-59
2023/04/25 07:15:26;;;;;;;;;28.00;23.50;21.20;42.40;;;;;;110054;1252;53396;-59
2023/04/25 07:17:53;;;;;;;;;30.00;27.00;21.20;42.50;;;;;;110020;1256;49830;-58
2023/04/25 07:20:20;;;;;;;;;26.00;24.00;21.20;42.90;;;;;;109908;1253;49023;-57
2023/04/25 07:22:47;;;;;;;;;32.00;29.00;21.10;42.30;;;;;;109995;1256;45918;-59
2023/04/25 07:25:14;;;;;;;;;30.75;25.75;21.20;42.40;;;;;;109999;1252;55322;-57
2023/04/25 07:27:41;;;;;;;;;28.50;26.00;21.20;42.40;;;;;;109954;1252;54130;-58
2023/04/25 07:30:09;;;;;;;;;28.50;27.50;21.20;42.40;;;;;;109959;1252;50068;-58
2023/04/25 07:32:36;;;;;;;;;24.67;23.33;21.20;42.40;;;;;;109976;1255;49521;-58
2023/04/25 07:35:03;;;;;;;;;26.50;24.00;21.20;42.40;;;;;;110025;1256;45606;-58
2023/04/25 07:37:30;;;;;;;;;30.00;25.67;21.20;42.50;;;;;;109976;1252;55563;-58
2023/04/25 07:39:57;;;;;;;;;29.50;27.00;21.20;42.40;;;;;;109969;1257;53586;-58
2023/04/25 07:42:24;;;;;;;;;21.25;20.25;21.20;42.40;;;;;;109980;1256;50308;-58
2023/04/25 07:44:51;;;;;;;;;24.00;23.00;21.20;42.40;;;;;;110025;1252;48963;-58
2023/04/25 07:47:21;;;;;;;;;27.67;25.00;21.20;42.70;;;;;;110024;1252;45422;-57
2023/04/25 07:49:48;;;;;;;;;27.00;25.00;21.20;42.40;;;;;;109909;1252;55228;-57
2023/04/25 07:52:15;;;;;;;;;28.67;27.67;21.20;42.40;;;;;;109951;1257;54036;-59
2023/04/25 07:54:42;;;;;;;;;27.00;26.00;21.20;42.40;;;;;;109930;1254;50657;-58
2023/04/25 07:57:09;;;;;;;;;25.00;24.00;21.20;42.50;;;;;;109926;1252;49135;-58
2023/04/25 07:59:36;;;;;;;;;29.00;28.00;21.20;42.50;;;;;;109963;1256;45614;-58
2023/04/25 08:02:03;;;;;;;;;25.00;23.50;21.20;42.70;;;;;;109936;1253;55676;-59
2023/04/25 08:04:30;;;;;;;;;34.33;28.00;21.30;42.60;;;;;;109942;1252;54969;-57
2023/04/25 08:06:57;;;;;;;;;26.50;24.50;21.20;42.50;;;;;;109936;1252;50072;-58
2023/04/25 08:09:24;;;;;;;;;27.50;25.50;21.30;42.60;;;;;;109974;1257;49141;-59
2023/04/25 08:11:51;;;;;;;;;23.00;22.00;21.20;42.50;;;;;;109885;1257;45332;-58
2023/04/25 08:14:18;;;;;;;;;30.00;27.00;21.30;42.10;;;;;;109911;1253;55612;-58
2023/04/25 08:16:45;;;;;;;;;28.50;25.50;21.30;42.60;;;;;;109985;1256;54192;-59
2023/04/25 08:19:12;;;;;;;;;28.00;27.00;21.30;42.60;;;;;;109908;1256;49806;-58
2023/04/25 08:21:39;;;;;;;;;29.00;28.00;21.20;42.70;;;;;;110003;1255;49199;-58
2023/04/25 08:24:06;;;;;;;;;29.00;28.00;21.30;42.60;;;;;;109934;1255;45888;-57
2023/04/25 08:26:34;;;;;;;;;25.00;22.00;21.30;42.50;;;;;;109937;1256;56433;-59
2023/04/25 08:29:01;;;;;;;;;24.00;23.00;21.30;42.50;;;;;;109927;1256;53393;-58
2023/04/25 08:31:28;;;;;;;;;26.00;24.00;21.30;42.70;;;;;;110014;1257;49942;-58
2023/04/25 08:33:55;;;;;;;;;27.00;25.00;21.30;42.50;;;;;;110011;1252;50100;-58
2023/04/25 08:36:22;;;;;;;;;27.33;25.67;21.30;42.50;;;;;;109981;1252;46013;-58
2023/04/25 08:38:49;;;;;;;;;26.00;24.50;21.40;42.50;;;;;;109990;1257;56198;-58
2023/04/25 08:41:16;;;;;;;;;26.00;24.00;21.40;42.50;;;;;;109950;1257;54271;-56
2023/04/25 08:43:45;;;;;;;;;26.67;25.33;21.30;42.30;;;;;;109936;1257;49617;-58
2023/04/25 08:46:17;;;;;;;;;25.50;24.00;21.30;42.30;;;;;;109977;1257;49761;-58
2023/04/25 08:48:45;;;;;;;;;26.00;23.50;21.40;42.40;;;;;;109949;1252;45427;-58
2023/04/25 08:51:27;;;;;;;;;27.00;26.00;21.40;42.30;;;;;;110028;1252;55519;-58
2023/04/25 08:53:56;;;;;;;;;26.50;24.50;21.40;42.30;;;;;;109913;1252;53509;-57
2023/04/25 08:56:23;;;;;;;;;26.00;23.00;21.50;42.60;;;;;;109943;1256;49941;-59
2023/04/25 08:58:50;;;;;;;;;24.00;22.00;21.40;42.30;;;;;;109980;1252;49577;-59
2023/04/25 09:01:18;;;;;;;;;25.00;23.33;21.50;42.50;;;;;;109942;1257;45125;-58
2023/04/25 09:03:47;;;;;;;;;30.00;24.00;21.50;42.30;;;;;;109942;1252;55590;-57
2023/04/25 09:06:16;;;;;;;;;29.50;26.00;21.50;42.50;;;;;;109986;1257;54458;-59
2023/04/25 09:08:43;;;;;;;;;25.00;24.00;21.50;42.30;;;;;;110010;1256;49289;-58
2023/04/25 09:11:10;;;;;;;;;26.33;25.00;21.60;42.30;;;;;;109981;1252;50384;-58
2023/04/25 09:13:37;;;;;;;;;25.00;23.50;21.60;42.30;;;;;;109990;1252;46113;-58
2023/04/25 09:16:04;;;;;;;;;24.33;23.00;21.60;42.30;;;;;;109962;1253;56994;-58
2023/04/25 09:18:33;;;;;;;;;25.33;24.00;21.60;42.20;;;;;;109955;1257;54198;-58
2023/04/25 09:21:08;;;;;;;;;24.00;21.00;21.60;42.20;;;;;;109984;1255;49354;-58
2023/04/25 09:23:48;;;;;;;;;27.50;26.00;21.70;42.30;;;;;;109979;1256;49753;-58
2023/04/25 09:26:19;;;;;;;;;20.00;19.00;21.70;42.20;;;;;;110032;1257;45910;-57
2023/04/25 09:28:47;;;;;;;;;23.00;22.00;21.70;42.30;;;;;;109956;1257;55200;-58
2023/04/25 09:31:24;;;;;;;;;25.75;22.75;21.70;42.40;;;;;;109992;1255;54090;-58
2023/04/25 09:34:00;;;;;;;;;25.00;24.00;21.80;42.50;;;;;;109937;1257;49624;-57
2023/04/25 09:36:29;;;;;;;;;25.00;24.00;21.80;42.30;;;;;;109957;1256;49616;-58
2023/04/25 09:38:56;;;;;;;;;25.75;24.25;21.80;42.50;;;;;;109985;1252;45298;-57
2023/04/25 09:41:24;;;;;;;;;25.75;24.50;21.90;42.30;;;;;;109877;1252;55747;-58
2023/04/25 09:43:51;;;;;;;;;28.00;26.00;21.80;42.10;;;;;;109978;1252;53379;-56
2023/04/25 09:46:20;;;;;;;;;31.00;27.00;21.80;42.30;;;;;;110018;1256;49083;-58
2023/04/25 09:48:49;;;;;;;;;24.00;22.00;21.80;42.10;;;;;;109949;1252;49633;-58
2023/04/25 09:51:17;;;;;;;;;22.00;21.00;21.90;41.90;;;;;;110006;1252;46200;-57
2023/04/25 09:53:46;;;;;;;;;29.50;26.50;21.90;42.10;;;;;;109992;1252;55974;-57
2023/04/25 09:56:13;;;;;;;;;28.00;25.67;21.90;42.30;;;;;;109911;1254;54822;-58
2023/04/25 09:58:41;;;;;;;;;23.67;22.00;21.90;42.30;;;;;;110028;1252;49857;-57
2023/04/25 10:01:09;;;;;;;;;21.67;20.67;22.00;42.10;;;;;;110004;1256;49984;-58
2023/04/25 10:03:42;;;;;;;;;30.00;27.00;22.00;42.10;;;;;;110027;1252;45489;-59
2023/04/25 10:06:12;;;;;;;;;25.00;23.00;22.00;42.30;;;;;;110008;1256;55078;-57
2023/04/25 10:08:40;;;;;;;;;27.00;23.00;22.00;42.30;;;;;;109953;1252;53702;-58
2023/04/25 10:11:08;;;;;;;;;24.00;22.00;22.00;42.10;;;;;;109980;1252;49929;-57
2023/04/25 10:13:36;;;;;;;;;25.67;23.67;22.10;42.20;;;;;;109866;1257;49363;-58
2023/04/25 10:16:04;;;;;;;;;21.00;19.00;22.10;42.20;;;;;;109926;1252;46042;-57
2023/04/25 10:18:32;;;;;;;;;26.33;24.00;22.10;41.70;;;;;;110020;1252;55606;-58
2023/04/25 10:21:02;;;;;;;;;25.00;21.50;22.20;42.30;;;;;;109937;1252;53684;-58
2023/04/25 10:23:30;;;;;;;;;23.00;21.00;22.20;42.10;;;;;;109970;1255;49379;-58
2023/04/25 10:25:57;;;;;;;;;26.00;21.00;22.20;42.00;;;;;;109935;1254;50740;-58
2023/04/25 10:28:25;;;;;;;;;24.00;23.00;22.30;42.00;;;;;;109892;1254;46031;-57
2023/04/25 10:31:02;;;;;;;;;25.00;23.00;22.30;42.00;;;;;;109888;1257;56079;-59
2023/04/25 10:33:41;;;;;;;;;26.00;23.00;22.30;41.90;;;;;;109992;1256;53374;-58
2023/04/25 10:36:19;;;;;;;;;26.00;23.00;22.40;42.00;;;;;;110096;1252;49940;-59
2023/04/25 10:38:48;;;;;;;;;24.50;21.50;22.40;42.00;;;;;;109926;1253;49387;-58
2023/04/25 10:41:15;;;;;;;;;24.33;22.33;22.50;42.00;;;;;;109922;1252;46701;-59
2023/04/25 10:43:45;;;;;;;;;25.00;24.00;22.50;41.90;;;;;;109862;1252;56756;-58
2023/04/25 10:46:17;;;;;;;;;25.00;23.00;22.50;41.90;;;;;;109905;1255;54142;-58
2023/04/25 10:48:55;;;;;;;;;25.00;23.50;22.50;41.90;;;;;;109934;1257;49991;-58
2023/04/25 10:51:30;;;;;;;;;21.50;19.50;22.60;42.50;;;;;;109951;1257;49757;-59
2023/04/25 10:53:59;;;;;;;;;21.00;20.00;22.60;42.10;;;;;;109949;1252;45168;-58
2023/04/25 10:56:29;;;;;;;;;21.00;20.00;22.70;42.50;;;;;;110034;1252;55683;-56
2023/04/25 10:59:10;;;;;;;;;27.00;25.00;22.70;42.10;;;;;;109946;1252;54134;-58
2023/04/25 11:01:40;;;;;;;;;22.00;21.00;22.70;41.80;;;;;;109964;1257;50099;-58
2023/04/25 11:04:30;;;;;;;;;23.67;20.00;22.80;42.10;;;;;;109979;1256;49737;-57
2023/04/25 11:07:09;;;;;;;;;26.00;24.00;22.80;41.80;;;;;;110014;1258;45419;-58
2023/04/25 11:09:40;;;;;;;;;20.67;19.67;22.80;41.70;;;;;;109969;1256;55421;-59
2023/04/25 11:12:08;;;;;;;;;21.00;20.00;22.80;41.70;;;;;;109951;1256;54985;-57
2023/04/25 11:14:36;;;;;;;;;22.00;21.00;22.80;41.70;;;;;;109941;1254;49379;-58
2023/04/25 11:17:03;;;;;;;;;22.00;21.00;22.80;41.70;;;;;;109937;1254;49896;-58
2023/04/25 11:19:30;;;;;;;;;23.67;22.67;22.80;41.70;;;;;;109957;1252;46065;-58
2023/04/25 11:21:58;;;;;;;;;23.50;21.00;22.80;41.70;;;;;;109926;1256;55649;-58
2023/04/25 11:24:27;;;;;;;;;19.33;17.67;22.80;41.80;;;;;;109971;1252;54812;-58
2023/04/25 11:26:55;;;;;;;;;23.33;20.00;22.80;41.80;;;;;;109960;1252;50496;-56
2023/04/25 11:29:23;;;;;;;;;23.00;22.00;22.80;41.80;;;;;;110001;1252;49946;-59
2023/04/25 11:31:50;;;;;;;;;23.00;20.50;22.80;41.80;;;;;;109959;1255;46306;-59
2023/04/25 11:34:20;;;;;;;;;20.50;19.00;22.80;42.00;;;;;;109988;1256;55959;-59
2023/04/25 11:36:47;;;;;;;;;24.00;22.00;22.80;41.90;;;;;;109981;1257;54693;-58
2023/04/25 11:39:15;;;;;;;;;21.00;18.00;22.80;41.90;;;;;;109880;1252;49237;-59
2023/04/25 11:41:42;;;;;;;;;22.50;21.00;22.70;41.90;;;;;;109928;1255;49365;-59
2023/04/25 11:44:09;;;;;;;;;23.00;21.50;22.70;41.90;;;;;;109926;1257;46369;-58
2023/04/25 11:46:35;;;;;;;;;24.00;20.00;22.70;41.90;;;;;;109922;1257;56934;-57
2023/04/25 11:49:04;;;;;;;;;25.00;20.00;22.70;41.90;;;;;;109948;1252;54095;-58
2023/04/25 11:51:41;;;;;;;;;27.00;23.00;22.70;41.90;;;;;;109925;1252;48938;-59
2023/04/25 11:54:08;;;;;;;;;25.00;21.50;22.70;42.10;;;;;;109969;1252;49597;-57
2023/04/25 11:56:35;;;;;;;;;23.00;21.50;22.70;41.90;;;;;;109933;1256;45418;-56
2023/04/25 11:59:05;;;;;;;;;19.00;18.00;22.70;42.10;;;;;;109940;1256;56456;-58
2023/04/25 12:01:40;;;;;;;;;20.00;18.00;22.70;41.90;;;;;;109965;1256;54226;-59
2023/04/25 12:04:15;;;;;;;;;24.67;21.00;22.70;42.00;;;;;;110048;1254;49497;-58
2023/04/25 12:06:43;;;;;;;;;23.00;20.00;22.70;42.00;;;;;;109980;1252;50210;-59
2023/04/25 12:09:13;;;;;;;;;25.00;21.00;22.70;42.00;;;;;;109934;1252;45991;-58
2023/04/25 12:11:48;;;;;;;;;22.50;18.50;22.70;42.00;;;;;;109957;1257;55662;-57
2023/04/25 12:14:30;;;;;;;;;20.00;19.00;22.70;42.00;;;;;;109962;1254;53499;-58
2023/04/25 12:16:59;;;;;;;;;21.50;19.50;22.60;42.00;;;;;;110113;1255;49366;-58
2023/04/25 12:19:28;;;;;;;;;22.50;19.00;22.60;41.90;;;;;;110016;1255;49519;-58
2023/04/25 12:21:55;;;;;;;;;20.00;19.00;22.70;42.00;;;;;;109983;1257;45468;-58